Aviation Digital Data Service (ADDS)

Output produced by METARs form (2131 UTC 20 August 2019)
found at http://www.aviationweather.gov/metar/data/
 
Forecast for: FIMP (PLAISANCE , MU)
Text: TAF FIMP 201720Z 2018/2200 10012G32KT 7000 -SHRA FEW006 SCT015 BKN050
Forecast period: 1800 UTC 20 August 2019 to 0000 UTC 22 August 2019
Forecast type: FROM: standard forecast or significant change
Winds: from the E (100 degrees) at 14 MPH (12 knots; 6.2 m/s)
gusting to 37 MPH (32 knots; 16.5 m/s)
Visibility: 4 miles (7 km)
Ceiling: 5000 feet AGL
Clouds: few clouds at 600 feet AGL
scattered clouds at 1500 feet AGL
broken clouds at 5000 feet AGL
Weather: -SHRA  (light rain showers)
Text: PROB30
Forecast period: 1800 UTC 20 August 2019 to 0400 UTC 21 August 2019
Forecast type: TEMPORARY: The following changes expected for less than half the time period
Visibility: 1.86 miles (2.99 km)
Ceiling: 1400 feet AGL
Clouds: few clouds at 500 feet AGL
broken clouds at 1400 feet AGL
Weather: SHRA  (rain showers)
Text: TEMPO 2018/2104 3000 SHRA FEW005 BKN014
Forecast period: 1000 UTC 21 August 2019 to 0000 UTC 22 August 2019
Forecast type: TEMPORARY: The following changes expected for less than half the time period
Visibility: missing
Ceiling: at least 12,000 feet AGL
Clouds: scattered clouds at 1600 feet AGL
Weather: no significant weather forecast for this period